createdAt,value
2022-08-01T00:01:28.586Z,6.72
2022-08-01T00:06:59.131Z,4.68
2022-08-01T00:12:28.573Z,5.88
2022-08-01T00:17:57.600Z,6.95
2022-08-01T00:23:28.930Z,6.63
2022-08-01T00:28:57.675Z,3.65
2022-08-01T00:34:26.628Z,2.45
2022-08-01T00:39:57.279Z,2.05
2022-08-01T00:45:26.927Z,2.53
2022-08-01T00:50:57.049Z,2.97
2022-08-01T00:56:29.260Z,3.60
2022-08-01T01:01:58.413Z,7.97
2022-08-01T01:07:34.664Z,12.43
2022-08-01T01:13:09.037Z,13.23
2022-08-01T01:18:44.775Z,12.10
2022-08-01T01:24:23.524Z,11.35
2022-08-01T01:29:59.611Z,8.55
2022-08-01T01:35:34.062Z,8.27
2022-08-01T01:41:05.933Z,5.43
2022-08-01T01:46:38.733Z,3.20
2022-08-01T01:52:09.811Z,2.83
2022-08-01T01:57:42.808Z,2.30
2022-08-01T02:03:15.800Z,2.45
2022-08-01T02:08:46.449Z,2.35
2022-08-01T02:14:17.595Z,2.00
2022-08-01T02:19:48.474Z,2.65
2022-08-01T02:25:23.694Z,2.65
2022-08-01T02:30:52.602Z,6.97
2022-08-01T02:42:05.695Z,3.58
2022-08-01T02:47:35.792Z,3.30
2022-08-01T02:53:08.283Z,3.13
2022-08-01T02:58:39.141Z,2.85
2022-08-01T03:04:09.980Z,3.05
2022-08-01T03:09:44.408Z,3.20
2022-08-01T03:15:16.079Z,3.35
2022-08-01T03:20:47.860Z,3.60
2022-08-01T03:26:19.976Z,4.60
2022-08-01T03:31:51.129Z,4.40
2022-08-01T03:37:25.681Z,3.78
2022-08-01T03:43:00.523Z,5.50
2022-08-01T03:48:35.157Z,4.88
2022-08-01T03:54:06.072Z,5.63
2022-08-01T03:59:37.653Z,4.32
2022-08-01T04:05:08.258Z,3.60
2022-08-01T04:10:39.562Z,3.28
2022-08-01T04:16:09.856Z,3.40
2022-08-01T04:21:39.914Z,3.03
2022-08-01T04:27:14.264Z,2.63
2022-08-01T04:32:47.406Z,3.58
2022-08-01T04:38:24.204Z,2.85
2022-08-01T04:43:55.397Z,3.20
2022-08-01T04:49:26.114Z,3.40
2022-08-01T04:54:55.133Z,3.03
2022-08-01T05:00:24.523Z,4.93
2022-08-01T05:11:24.281Z,4.40
2022-08-01T05:16:53.674Z,3.60
2022-08-01T05:22:26.068Z,4.43
2022-08-01T05:27:55.282Z,4.00
2022-08-01T05:33:24.635Z,3.97
2022-08-01T05:38:54.534Z,4.00
2022-08-01T05:44:23.338Z,4.40
2022-08-01T05:49:52.376Z,6.35
2022-08-01T05:55:22.897Z,5.05
2022-08-01T06:00:52.482Z,4.60
2022-08-01T06:06:21.312Z,4.30
2022-08-01T06:11:55.930Z,3.95
2022-08-01T06:17:25.562Z,4.10
2022-08-01T06:28:24.906Z,3.90
2022-08-01T06:33:54.426Z,4.75
2022-08-01T06:39:23.465Z,4.50
2022-08-01T06:50:21.983Z,4.10
2022-08-01T06:55:51.426Z,4.50
2022-08-01T07:01:21.837Z,3.22
2022-08-01T07:06:51.513Z,3.72
2022-08-01T07:12:20.555Z,4.03
2022-08-01T07:17:50.898Z,3.88
2022-08-01T07:23:22.576Z,3.92
2022-08-01T07:28:52.317Z,3.80
2022-08-01T07:34:23.666Z,4.00
2022-08-01T07:39:52.297Z,7.60
2022-08-01T07:45:22.001Z,10.27
2022-08-01T07:50:52.512Z,9.13
2022-08-01T07:56:21.320Z,7.95
2022-08-01T08:01:50.399Z,6.75
2022-08-01T08:07:21.271Z,7.55
2022-08-01T08:12:50.901Z,5.57
2022-08-01T08:18:20.500Z,4.53
2022-08-01T08:24:09.031Z,3.60
2022-08-01T08:29:39.368Z,4.50
2022-08-01T08:35:12.371Z,4.60
2022-08-01T08:40:44.358Z,3.55
2022-08-01T08:46:14.743Z,4.53
2022-08-01T08:51:45.895Z,3.70
2022-08-01T08:57:17.716Z,4.10
2022-08-01T09:02:48.293Z,3.10
2022-08-01T09:08:18.469Z,3.40
2022-08-01T09:14:04.342Z,3.92
2022-08-01T09:19:41.553Z,7.95
2022-08-01T09:25:12.532Z,3.60
2022-08-01T09:30:42.801Z,4.28
2022-08-01T09:36:13.137Z,4.30
2022-08-01T09:41:42.813Z,3.70
2022-08-01T09:47:15.806Z,3.72
2022-08-01T09:52:57.108Z,4.28
2022-08-01T09:58:26.334Z,4.47
2022-08-01T10:04:09.856Z,4.50
2022-08-01T10:09:41.168Z,3.42
2022-08-01T10:15:11.690Z,3.90
2022-08-01T10:20:43.948Z,4.97
2022-08-01T10:26:14.805Z,4.53
2022-08-01T10:31:44.456Z,4.07
2022-08-01T10:37:21.179Z,4.95
2022-08-01T10:42:50.420Z,5.03
2022-08-01T10:48:24.772Z,4.53
2022-08-01T10:53:58.388Z,4.78
2022-08-01T10:59:51.112Z,4.88
2022-08-01T11:05:24.124Z,4.80
2022-08-01T11:11:02.429Z,4.88
2022-08-01T11:16:32.494Z,5.10
2022-08-01T11:22:03.561Z,5.22
2022-08-01T11:27:34.998Z,4.80
2022-08-01T11:33:10.828Z,4.78
2022-08-01T11:38:43.553Z,5.30
2022-08-01T11:44:20.889Z,5.38
2022-08-01T11:49:56.105Z,5.65
2022-08-01T11:55:25.785Z,7.03
2022-08-01T12:01:02.208Z,5.35
2022-08-01T12:06:31.276Z,5.07
2022-08-01T12:11:59.989Z,5.38
2022-08-01T12:17:38.310Z,5.22
2022-08-01T12:23:08.709Z,6.25
2022-08-01T12:28:42.579Z,5.47
2022-08-01T12:34:29.955Z,6.80
2022-08-01T12:39:59.672Z,6.90
2022-08-01T12:45:32.944Z,8.90
2022-08-01T12:51:05.329Z,8.50
2022-08-01T12:56:35.283Z,9.75
2022-08-01T13:02:12.138Z,10.23
2022-08-01T13:07:46.137Z,10.10
2022-08-01T13:13:22.343Z,10.32
2022-08-01T13:18:58.440Z,11.98
2022-08-01T13:24:30.182Z,10.35
2022-08-01T13:30:12.943Z,10.02
2022-08-01T13:35:42.966Z,10.85
2022-08-01T13:41:13.745Z,12.45
2022-08-01T13:46:49.235Z,9.77
2022-08-01T13:52:20.533Z,11.82
2022-08-01T13:57:51.143Z,10.50
2022-08-01T14:03:20.995Z,8.93
2022-08-01T14:09:02.201Z,9.00
2022-08-01T14:14:48.580Z,9.95
2022-08-01T14:20:20.735Z,13.95
2022-08-01T14:26:03.262Z,12.38
2022-08-01T14:31:37.796Z,10.13
2022-08-01T14:37:07.145Z,10.90
2022-08-01T14:42:37.544Z,11.98
2022-08-01T14:48:08.294Z,12.52
2022-08-01T14:53:37.862Z,10.52
2022-08-01T14:59:21.523Z,9.93
2022-08-01T15:04:52.902Z,9.95
2022-08-01T15:10:23.836Z,9.63
2022-08-01T15:15:53.220Z,16.65
2022-08-01T15:21:40.155Z,28.65
2022-08-01T15:27:12.150Z,17.00
2022-08-01T15:32:41.050Z,11.52
2022-08-01T15:38:11.987Z,8.70
2022-08-01T15:43:43.181Z,7.63
2022-08-01T15:49:14.467Z,7.00
2022-08-01T15:54:45.534Z,6.38
2022-08-01T16:00:16.703Z,6.82
2022-08-01T16:05:46.446Z,5.50
2022-08-01T16:11:17.693Z,5.40
2022-08-01T16:16:48.131Z,5.22
2022-08-01T16:22:17.396Z,5.50
2022-08-01T16:27:47.561Z,4.55
2022-08-01T16:33:17.107Z,5.60
2022-08-01T16:39:07.576Z,4.47
2022-08-01T16:44:38.318Z,4.72
2022-08-01T16:50:09.548Z,4.47
2022-08-01T16:55:49.286Z,5.88
2022-08-01T17:02:00.503Z,6.00
2022-08-01T17:07:11.492Z,5.10
2022-08-01T17:12:42.265Z,5.10
2022-08-01T17:18:12.153Z,5.60
2022-08-01T17:23:42.169Z,4.90
2022-08-01T17:29:10.757Z,3.90
2022-08-01T17:34:41.973Z,3.30
2022-08-01T17:40:38.724Z,2.85
2022-08-01T17:46:01.097Z,3.47
2022-08-01T17:51:31.534Z,3.55
2022-08-01T17:57:01.348Z,3.20
2022-08-01T18:02:30.016Z,2.80
2022-08-01T18:08:02.484Z,2.90
2022-08-01T18:13:32.152Z,3.00
2022-08-01T18:19:00.808Z,2.20
2022-08-01T18:24:31.664Z,2.70
2022-08-01T18:30:00.834Z,2.40
2022-08-01T18:35:52.465Z,2.90
2022-08-01T18:41:21.584Z,2.70
2022-08-01T18:46:50.912Z,4.03
2022-08-01T18:52:21.135Z,2.90
2022-08-01T18:57:59.447Z,3.28
2022-08-01T19:03:29.231Z,5.03
2022-08-01T19:09:02.051Z,6.13
2022-08-01T19:14:32.441Z,4.63
2022-08-01T19:20:02.006Z,3.90
2022-08-01T19:25:31.361Z,4.03
2022-08-01T19:31:26.783Z,3.92
2022-08-01T19:36:58.016Z,3.72
2022-08-01T19:42:27.510Z,3.75
2022-08-01T19:47:58.523Z,3.80
2022-08-01T19:53:28.029Z,3.45
2022-08-01T19:59:00.022Z,4.63
2022-08-01T20:04:31.242Z,3.63
2022-08-01T20:10:00.985Z,4.40
2022-08-01T20:15:30.382Z,3.70
2022-08-01T20:21:03.215Z,3.97
2022-08-01T20:26:32.812Z,4.07
2022-08-01T20:32:03.615Z,4.10
2022-08-01T20:38:05.620Z,7.03
2022-08-01T20:43:27.693Z,7.57
2022-08-01T20:48:59.144Z,8.15
2022-08-01T20:54:29.758Z,8.50
2022-08-01T21:00:03.101Z,6.15
2022-08-01T21:05:33.157Z,6.68
2022-08-01T21:11:04.562Z,9.88
2022-08-01T21:16:39.526Z,16.27
2022-08-01T21:22:17.608Z,14.23
2022-08-01T21:27:57.270Z,19.25
2022-08-01T21:33:27.024Z,9.15
2022-08-01T21:38:58.271Z,5.68
2022-08-01T21:44:31.155Z,4.97
2022-08-01T21:50:03.543Z,5.43
2022-08-01T21:55:37.663Z,4.90
2022-08-01T22:01:33.660Z,5.47
2022-08-01T22:07:23.423Z,5.07
2022-08-01T22:12:53.824Z,4.85
2022-08-01T22:18:24.459Z,5.55
2022-08-01T22:23:54.844Z,5.40
2022-08-01T22:29:28.932Z,5.45
2022-08-01T22:35:00.842Z,5.72
2022-08-01T22:40:33.536Z,5.78
2022-08-01T22:46:16.642Z,5.53
2022-08-01T22:51:58.991Z,6.72
2022-08-01T22:57:31.937Z,6.50
2022-08-01T23:03:08.077Z,6.57
2022-08-01T23:08:40.762Z,5.47
2022-08-01T23:14:11.226Z,4.13
2022-08-01T23:19:41.137Z,4.10
2022-08-01T23:25:13.302Z,3.05
2022-08-01T23:30:44.376Z,2.72
2022-08-01T23:36:14.730Z,3.10
2022-08-01T23:41:57.417Z,3.72
2022-08-01T23:47:27.887Z,6.53
2022-08-01T23:58:26.876Z,24.92
